Hauptseite
METAR-TAF:

METAR-TAF

Flughäfen :

St Athan, Wales

Breite: 51-24N, Länge: 003-26W, Höhe: 50 m

Beobachtung

Neuester Wetterbericht von vor 1 Stunde und 19 Minuten, um 19:50 UTC
Wind 12 kt aus West/Südwest
Temperatur 6°C
Luftfeuchtigkeit 87%
Luftdruck 1002 hPa
Sichtweite 10 km oder mehr
Regen

METAR: EGDX 161950Z AUTO 24012KT 9999 RA BKN023/// SCT029/// 06/04 Q1002

Zeit: 21:09 (21:09 UTC)

Prognose

Neuester Wetterbericht von vor 7 Stunden und 34 Minuten, um 13:35 UTC
Gültige Prognose vom 16 um 15 UTC bis 16 um 18 UTC
Wind 13 kt aus West/Nordwest
Sichtweite 10 km oder mehr
Aufgelockert bewölkt in der Höhe von 3000 ft
Wahrscheinlichkeit 40% :
Zeitweise
vom 16 um 16 UTC bis 16 um 18 UTC
Wind 15 kt aus West, Böen bis zu 25 kt
Sichtweite: 7000 m
Aufgelockert bewölkt in der Höhe von 1800 ft
Regenschauer

TAF: EGDX 161335Z 1615/1618 29013KT 9999 SCT030 PROB40 TEMPO 1616/1618 28015G25KT 7000 SHRA SCT018

Wetterbeobachtungen und Prognosen von mehr als 4000 Flughäfen (METAR und TAF Bericht).

Die verfügbaren Stationen werden durch gelbe und rote Markierungen auf der Karte dargestellt.

Führen Sie die Maus auf sie, um den Namen der Station zu sehen.

Darauf klicken, um die Beobachtung von Wetterbeobachtungen und Prognosen zu sehen.

Um die Karte zu ändern : klicken Sie auf den grünen Tasten mit einem schwarzen Kreuz Zum Vergrößern, auf den grünen Button mit einem Gedankenstrich zu verkleinern, oder auf die grünen Pfeile für benachbarte Karten.


METAR-TAF: